Bookmark and Share
Track history (hours):
 

Callsign MJFW8 (name unknown)

Last reported at 2013-Aug-28 16:31 UTC. Time now 2014-Apr-17 21:52 UTC.
Position N 44°25' E 008°55'.
Warning: this ship's position is months out of date.

NotesDate/timePositionNaut miles runAvg speedWind from/ knotsBaromVisibWave heightAir tempDewpointWater temp
2013-Aug-28 16:31N 44°25' E 008°55'0 0.0
2013-Aug-28 15:24N 44°25' E 008°55'2 2.4
2013-Aug-28 14:33N 44°23' E 008°57'9 9.5
2013-Aug-28 13:33N 44°15' E 008°50'1313.2
2013-Aug-28 12:33N 44°04' E 008°41'1414.1
2013-Aug-28 11:33N 43°51' E 008°30'1714.2
2013-Aug-28 10:19N 43°40' E 008°12'1114.0
2013-Aug-28 09:33N 43°35' E 007°59'1110.8
2013-Aug-28 08:33N 43°33' E 007°44'9 9.2
2013-Aug-28 07:33N 43°38' E 007°34'9 0.5
2013-Aug-27 15:21N 43°44' E 007°25'0 0.0
2013-Aug-27 14:33N 43°44' E 007°25'0 0.0
2013-Aug-27 12:33N 43°44' E 007°25'0 0.0
2013-Aug-27 11:29N 43°44' E 007°25'0 0.0
2013-Aug-27 09:20N 43°44' E 007°25'0 0.0
2013-Aug-27 08:08N 43°44' E 007°25'0 0.0
2013-Aug-27 07:29N 43°44' E 007°25'0 0.0
2013-Aug-27 06:32N 43°44' E 007°25'0 0.0
2013-Aug-27 05:32N 43°44' E 007°25'0 0.0
2013-Aug-27 04:32N 43°44' E 007°25'0 0.0
2013-Aug-27 03:32N 43°44' E 007°25'0 0.0
2013-Aug-27 02:29N 43°44' E 007°25'0 0.0
2013-Aug-27 01:17N 43°44' E 007°25'0 0.0
2013-Aug-27 00:32N 43°44' E 007°25'0 0.0
2013-Aug-26 19:22N 43°44' E 007°25'0 0.0
2013-Aug-26 18:16N 43°44' E 007°25'0 0.0
2013-Aug-26 17:28N 43°44' E 007°25'0 0.0
2013-Aug-26 16:10N 43°44' E 007°25'0 0.0
2013-Aug-26 15:31N 43°44' E 007°25'0 0.0
2013-Aug-26 13:25N 43°44' E 007°25'0 0.0
2013-Aug-26 12:25N 43°44' E 007°25'0 0.0
2013-Aug-26 10:31N 43°44' E 007°25'0 0.0
2013-Aug-26 09:25N 43°44' E 007°25'0 0.0
2013-Aug-26 08:31N 43°44' E 007°25'0 0.0
2013-Aug-26 06:29N 43°44' E 007°25'2 1.8
2013-Aug-26 05:33N 43°44' E 007°28'6 6.4
2013-Aug-26 04:33N 43°45' E 007°36'10 9.6
2013-Aug-26 03:33N 43°47' E 007°50'1312.7
2013-Aug-26 02:33N 43°49' E 008°07'1312.8
2013-Aug-26 01:32N 43°51' E 008°25'1212.5
2013-Aug-26 00:33N 43°53' E 008°42'1312.7
2013-Aug-25 23:34N 43°44' E 008°54'1313.2
2013-Aug-25 22:33N 43°34' E 009°06'1411.9
2013-Aug-25 21:24N 43°23' E 009°16'116 3.8
2013-Aug-24 15:13N 41°28' E 008°56'11 0.6
2013-Aug-23 21:04N 41°38' E 008°49'0 0.0
2013-Aug-23 20:27N 41°38' E 008°49'0 0.0
2013-Aug-23 19:33N 41°38' E 008°49'0 0.0
2013-Aug-23 11:27N 41°38' E 008°49'0 0.0
2013-Aug-23 10:33N 41°38' E 008°49'0 0.0
2013-Aug-23 09:33N 41°38' E 008°49'0 0.0
2013-Aug-23 08:33N 41°38' E 008°49'4 3.5
2013-Aug-23 07:19N 41°41' E 008°45'1114.0
2013-Aug-23 06:32N 41°48' E 008°34'1414.3
2013-Aug-23 05:32N 42°02' E 008°31'1713.4
2013-Aug-23 04:17N 42°19' E 008°35'17 0.4
2013-Aug-21 07:33N 42°34' E 008°46'0 0.0
2013-Aug-21 06:30N 42°34' E 008°46'0 0.0
2013-Aug-21 04:33N 42°34' E 008°46'0 0.0
2013-Aug-21 03:09N 42°34' E 008°46'0 0.0
2013-Aug-21 02:27N 42°34' E 008°46'0 0.0
2013-Aug-21 01:30N 42°34' E 008°46'0 0.0
2013-Aug-21 00:21N 42°34' E 008°46'0 0.0
2013-Aug-20 23:27N 42°34' E 008°46'0 0.0
2013-Aug-20 22:33N 42°34' E 008°46'0 0.0
2013-Aug-20 18:10N 42°34' E 008°46'0 0.0
2013-Aug-20 16:33N 42°34' E 008°46'0 0.0
2013-Aug-20 11:27N 42°34' E 008°46'0 0.0
2013-Aug-20 09:33N 42°34' E 008°46'0 0.0
2013-Aug-20 08:09N 42°34' E 008°46'0 0.0
2013-Aug-20 06:27N 42°34' E 008°46'0 0.0
2013-Aug-20 05:27N 42°34' E 008°46'0 0.0
2013-Aug-20 04:06N 42°34' E 008°46'0 0.0
2013-Aug-20 03:32N 42°34' E 008°46'0 0.0
2013-Aug-20 02:32N 42°34' E 008°46'0 0.0
2013-Aug-20 01:29N 42°34' E 008°46'0 0.0
2013-Aug-20 00:32N 42°34' E 008°46'0 0.0
2013-Aug-19 23:08N 42°34' E 008°46'0 0.0
2013-Aug-19 22:26N 42°34' E 008°46'0 0.0
2013-Aug-19 21:23N 42°34' E 008°46'0 0.0
2013-Aug-19 19:32N 42°34' E 008°46'0 0.0
2013-Aug-19 17:20N 42°34' E 008°46'0 0.3
2013-Aug-19 16:31N 42°34' E 008°46'1111.5
2013-Aug-19 15:33N 42°41' E 008°57'1312.7
2013-Aug-19 14:31N 42°44' E 009°15'28 2.5
2013-Aug-19 03:24N 43°02' E 008°45'1713.3
2013-Aug-19 02:09N 43°12' E 008°27'813.4
2013-Aug-19 01:33N 43°17' E 008°18'1313.4
2013-Aug-19 00:33N 43°24' E 008°02'1313.5
2013-Aug-18 23:33N 43°32' E 007°47'1313.3
2013-Aug-18 22:33N 43°38' E 007°31'9 8.1
2013-Aug-18 21:30N 43°42' E 007°20'0 0.0
2013-Aug-18 20:33N 43°42' E 007°20'0 0.0
2013-Aug-18 19:12N 43°42' E 007°20'0 0.0
2013-Aug-18 18:29N 43°42' E 007°20'0 0.0
2013-Aug-18 17:23N 43°42' E 007°20'  

Dump ship's entire track history

sailing weather and tide predictions

Ship Status Report: callsign MJFW8